sensor_id;sensor_type;location;lat;lon;timestamp;temperature;humidity
77969;DHT22;67161;0.000;0.000;2023-04-03T00:01:03;16.00;41.80
77969;DHT22;67161;0.000;0.000;2023-04-03T00:03:29;16.00;40.90
77969;DHT22;67161;0.000;0.000;2023-04-03T00:05:55;16.00;40.90
77969;DHT22;67161;0.000;0.000;2023-04-03T00:08:21;16.00;40.90
77969;DHT22;67161;0.000;0.000;2023-04-03T00:10:47;15.90;40.90
77969;DHT22;67161;0.000;0.000;2023-04-03T00:13:12;15.90;40.90
77969;DHT22;67161;0.000;0.000;2023-04-03T00:15:38;15.90;40.90
77969;DHT22;67161;0.000;0.000;2023-04-03T00:18:04;15.90;41.00
77969;DHT22;67161;0.000;0.000;2023-04-03T00:20:31;15.80;40.90
77969;DHT22;67161;0.000;0.000;2023-04-03T00:22:56;15.80;40.90
77969;DHT22;67161;0.000;0.000;2023-04-03T00:25:22;15.80;40.90
77969;DHT22;67161;0.000;0.000;2023-04-03T00:27:48;15.80;40.90
77969;DHT22;67161;0.000;0.000;2023-04-03T00:30:16;15.80;41.00
77969;DHT22;67161;0.000;0.000;2023-04-03T00:32:42;15.80;41.00
77969;DHT22;67161;0.000;0.000;2023-04-03T00:35:08;15.70;40.90
77969;DHT22;67161;0.000;0.000;2023-04-03T00:37:34;15.70;40.90
77969;DHT22;67161;0.000;0.000;2023-04-03T00:39:59;15.70;41.00
77969;DHT22;67161;0.000;0.000;2023-04-03T00:42:25;15.70;40.90
77969;DHT22;67161;0.000;0.000;2023-04-03T00:47:24;15.70;40.90
77969;DHT22;67161;0.000;0.000;2023-04-03T00:49:51;15.60;40.90
77969;DHT22;67161;0.000;0.000;2023-04-03T00:52:20;15.60;40.90
77969;DHT22;67161;0.000;0.000;2023-04-03T00:54:48;15.60;40.90
77969;DHT22;67161;0.000;0.000;2023-04-03T00:57:14;15.60;40.90
77969;DHT22;67161;0.000;0.000;2023-04-03T00:59:48;15.60;40.90
77969;DHT22;67161;0.000;0.000;2023-04-03T01:02:15;15.60;40.80
77969;DHT22;67161;0.000;0.000;2023-04-03T01:04:43;15.50;40.90
77969;DHT22;67161;0.000;0.000;2023-04-03T01:07:29;15.50;40.80
77969;DHT22;67161;0.000;0.000;2023-04-03T01:10:01;15.50;40.80
77969;DHT22;67161;0.000;0.000;2023-04-03T01:12:30;15.50;40.80
77969;DHT22;67161;0.000;0.000;2023-04-03T01:15:01;15.50;40.80
77969;DHT22;67161;0.000;0.000;2023-04-03T01:17:37;15.50;40.80
77969;DHT22;67161;0.000;0.000;2023-04-03T01:25:28;15.40;40.80
77969;DHT22;67161;0.000;0.000;2023-04-03T01:27:54;15.40;40.80
77969;DHT22;67161;0.000;0.000;2023-04-03T01:30:25;15.40;40.80
77969;DHT22;67161;0.000;0.000;2023-04-03T01:32:53;15.40;40.80
77969;DHT22;67161;0.000;0.000;2023-04-03T01:35:18;15.40;40.90
77969;DHT22;67161;0.000;0.000;2023-04-03T01:37:44;15.40;40.90
77969;DHT22;67161;0.000;0.000;2023-04-03T01:40:10;15.40;40.90
77969;DHT22;67161;0.000;0.000;2023-04-03T01:42:36;15.40;41.00
77969;DHT22;67161;0.000;0.000;2023-04-03T01:45:01;15.40;40.90
77969;DHT22;67161;0.000;0.000;2023-04-03T01:47:27;15.40;41.00
77969;DHT22;67161;0.000;0.000;2023-04-03T01:49:52;15.30;40.90
77969;DHT22;67161;0.000;0.000;2023-04-03T01:52:18;15.30;41.00
77969;DHT22;67161;0.000;0.000;2023-04-03T01:54:43;15.30;40.90
77969;DHT22;67161;0.000;0.000;2023-04-03T01:57:09;15.30;40.90
77969;DHT22;67161;0.000;0.000;2023-04-03T01:59:35;15.30;40.90
77969;DHT22;67161;0.000;0.000;2023-04-03T02:02:01;15.30;41.00
77969;DHT22;67161;0.000;0.000;2023-04-03T02:04:26;15.30;41.00
77969;DHT22;67161;0.000;0.000;2023-04-03T02:06:52;15.30;41.10
77969;DHT22;67161;0.000;0.000;2023-04-03T02:09:17;15.30;41.00
77969;DHT22;67161;0.000;0.000;2023-04-03T02:11:43;15.30;41.00
77969;DHT22;67161;0.000;0.000;2023-04-03T02:14:09;15.30;41.00
77969;DHT22;67161;0.000;0.000;2023-04-03T02:16:35;15.30;41.00
77969;DHT22;67161;0.000;0.000;2023-04-03T02:19:00;15.30;41.00
77969;DHT22;67161;0.000;0.000;2023-04-03T02:21:26;15.30;41.00
77969;DHT22;67161;0.000;0.000;2023-04-03T02:23:51;15.30;41.00
77969;DHT22;67161;0.000;0.000;2023-04-03T02:26:17;15.30;41.00
77969;DHT22;67161;0.000;0.000;2023-04-03T02:28:43;15.30;41.00
77969;DHT22;67161;0.000;0.000;2023-04-03T02:31:10;15.30;41.00
77969;DHT22;67161;0.000;0.000;2023-04-03T02:33:36;15.30;40.80
77969;DHT22;67161;0.000;0.000;2023-04-03T02:36:04;15.30;40.80
77969;DHT22;67161;0.000;0.000;2023-04-03T02:38:30;15.30;40.70
77969;DHT22;67161;0.000;0.000;2023-04-03T02:41:09;15.40;40.70
77969;DHT22;67161;0.000;0.000;2023-04-03T02:43:35;15.40;40.70
77969;DHT22;67161;0.000;0.000;2023-04-03T02:46:01;15.40;40.60
77969;DHT22;67161;0.000;0.000;2023-04-03T02:48:27;15.40;40.50
77969;DHT22;67161;0.000;0.000;2023-04-03T02:50:53;15.40;40.50
77969;DHT22;67161;0.000;0.000;2023-04-03T02:53:19;15.40;40.50
77969;DHT22;67161;0.000;0.000;2023-04-03T02:55:44;15.50;40.60
77969;DHT22;67161;0.000;0.000;2023-04-03T02:58:10;15.50;40.50
77969;DHT22;67161;0.000;0.000;2023-04-03T03:00:36;15.50;40.50
77969;DHT22;67161;0.000;0.000;2023-04-03T03:03:02;15.50;40.40
77969;DHT22;67161;0.000;0.000;2023-04-03T03:05:28;15.50;40.50
77969;DHT22;67161;0.000;0.000;2023-04-03T03:07:54;15.50;40.50
77969;DHT22;67161;0.000;0.000;2023-04-03T03:10:20;15.50;40.50
77969;DHT22;67161;0.000;0.000;2023-04-03T03:12:45;15.60;40.50
77969;DHT22;67161;0.000;0.000;2023-04-03T03:15:11;15.60;40.50
77969;DHT22;67161;0.000;0.000;2023-04-03T03:17:37;15.60;40.50
77969;DHT22;67161;0.000;0.000;2023-04-03T03:20:04;15.60;40.50
77969;DHT22;67161;0.000;0.000;2023-04-03T03:22:30;15.60;40.50
77969;DHT22;67161;0.000;0.000;2023-04-03T03:24:56;15.70;40.40
77969;DHT22;67161;0.000;0.000;2023-04-03T03:27:21;15.70;40.50
77969;DHT22;67161;0.000;0.000;2023-04-03T03:29:47;15.70;40.40
77969;DHT22;67161;0.000;0.000;2023-04-03T03:32:13;15.70;40.40
77969;DHT22;67161;0.000;0.000;2023-04-03T03:34:38;15.70;40.30
77969;DHT22;67161;0.000;0.000;2023-04-03T03:37:04;15.80;40.30
77969;DHT22;67161;0.000;0.000;2023-04-03T03:39:30;15.80;40.40
77969;DHT22;67161;0.000;0.000;2023-04-03T03:41:55;15.80;40.50
77969;DHT22;67161;0.000;0.000;2023-04-03T03:44:21;15.80;40.50
77969;DHT22;67161;0.000;0.000;2023-04-03T03:46:47;15.80;40.50
77969;DHT22;67161;0.000;0.000;2023-04-03T03:49:12;15.90;40.40
77969;DHT22;67161;0.000;0.000;2023-04-03T03:51:39;15.90;40.40
77969;DHT22;67161;0.000;0.000;2023-04-03T03:54:05;15.90;40.40
77969;DHT22;67161;0.000;0.000;2023-04-03T03:56:30;15.90;40.40
77969;DHT22;67161;0.000;0.000;2023-04-03T03:58:56;15.90;40.40
77969;DHT22;67161;0.000;0.000;2023-04-03T04:01:23;16.00;40.40
77969;DHT22;67161;0.000;0.000;2023-04-03T04:03:48;16.00;40.30
77969;DHT22;67161;0.000;0.000;2023-04-03T04:06:14;16.00;40.30
77969;DHT22;67161;0.000;0.000;2023-04-03T04:08:40;16.00;40.20
77969;DHT22;67161;0.000;0.000;2023-04-03T04:11:06;16.10;40.30
77969;DHT22;67161;0.000;0.000;2023-04-03T04:13:31;16.10;40.20
77969;DHT22;67161;0.000;0.000;2023-04-03T04:15:57;16.10;41.30
77969;DHT22;67161;0.000;0.000;2023-04-03T04:18:23;16.10;40.10
77969;DHT22;67161;0.000;0.000;2023-04-03T04:20:49;16.20;40.20
77969;DHT22;67161;0.000;0.000;2023-04-03T04:23:15;16.10;41.10
77969;DHT22;67161;0.000;0.000;2023-04-03T04:25:41;16.20;40.10
77969;DHT22;67161;0.000;0.000;2023-04-03T04:28:09;16.20;40.10
77969;DHT22;67161;0.000;0.000;2023-04-03T04:30:34;16.20;40.00
77969;DHT22;67161;0.000;0.000;2023-04-03T04:33:00;16.30;40.00
77969;DHT22;67161;0.000;0.000;2023-04-03T04:35:26;16.30;39.90
77969;DHT22;67161;0.000;0.000;2023-04-03T04:37:51;16.30;39.90
77969;DHT22;67161;0.000;0.000;2023-04-03T04:40:17;16.30;40.00
77969;DHT22;67161;0.000;0.000;2023-04-03T04:42:43;16.40;40.00
77969;DHT22;67161;0.000;0.000;2023-04-03T04:45:09;16.40;39.90
77969;DHT22;67161;0.000;0.000;2023-04-03T04:47:34;16.40;39.90
77969;DHT22;67161;0.000;0.000;2023-04-03T04:50:00;16.40;39.70
77969;DHT22;67161;0.000;0.000;2023-04-03T04:52:25;16.40;40.60
77969;DHT22;67161;0.000;0.000;2023-04-03T04:54:51;16.50;39.70
77969;DHT22;67161;0.000;0.000;2023-04-03T04:57:16;16.50;39.60
77969;DHT22;67161;0.000;0.000;2023-04-03T04:59:42;16.50;39.50
77969;DHT22;67161;0.000;0.000;2023-04-03T05:02:08;16.50;39.60
77969;DHT22;67161;0.000;0.000;2023-04-03T05:04:33;16.50;39.50
77969;DHT22;67161;0.000;0.000;2023-04-03T05:06:59;16.50;39.50
77969;DHT22;67161;0.000;0.000;2023-04-03T05:09:25;16.50;39.40
77969;DHT22;67161;0.000;0.000;2023-04-03T05:11:51;16.50;39.40
77969;DHT22;67161;0.000;0.000;2023-04-03T05:14:16;16.60;39.50
77969;DHT22;67161;0.000;0.000;2023-04-03T05:16:42;16.60;39.50
77969;DHT22;67161;0.000;0.000;2023-04-03T05:19:07;16.60;39.40
77969;DHT22;67161;0.000;0.000;2023-04-03T05:21:33;16.60;39.40
77969;DHT22;67161;0.000;0.000;2023-04-03T05:23:59;16.60;39.40
77969;DHT22;67161;0.000;0.000;2023-04-03T05:26:28;16.60;39.40
77969;DHT22;67161;0.000;0.000;2023-04-03T05:28:55;16.60;39.40
77969;DHT22;67161;0.000;0.000;2023-04-03T05:31:20;16.60;40.30
77969;DHT22;67161;0.000;0.000;2023-04-03T05:33:46;16.60;39.40
77969;DHT22;67161;0.000;0.000;2023-04-03T05:36:12;16.60;39.40
77969;DHT22;67161;0.000;0.000;2023-04-03T05:38:38;16.70;39.40
77969;DHT22;67161;0.000;0.000;2023-04-03T05:41:04;16.70;39.40
77969;DHT22;67161;0.000;0.000;2023-04-03T05:43:30;16.70;39.40
77969;DHT22;67161;0.000;0.000;2023-04-03T05:45:56;16.70;39.50
77969;DHT22;67161;0.000;0.000;2023-04-03T05:48:21;16.70;39.50
77969;DHT22;67161;0.000;0.000;2023-04-03T05:50:47;16.80;39.50
77969;DHT22;67161;0.000;0.000;2023-04-03T05:53:17;16.70;39.50
77969;DHT22;67161;0.000;0.000;2023-04-03T05:55:44;16.80;39.40
77969;DHT22;67161;0.000;0.000;2023-04-03T05:58:10;16.80;39.50
77969;DHT22;67161;0.000;0.000;2023-04-03T06:00:35;16.80;39.50
77969;DHT22;67161;0.000;0.000;2023-04-03T06:03:01;16.80;39.40
77969;DHT22;67161;0.000;0.000;2023-04-03T06:05:27;16.80;39.50
77969;DHT22;67161;0.000;0.000;2023-04-03T06:07:53;16.80;39.40
77969;DHT22;67161;0.000;0.000;2023-04-03T06:10:19;16.90;40.40
77969;DHT22;67161;0.000;0.000;2023-04-03T06:12:45;16.90;40.30
77969;DHT22;67161;0.000;0.000;2023-04-03T06:15:11;16.90;39.30
77969;DHT22;67161;0.000;0.000;2023-04-03T06:17:37;16.90;39.50
77969;DHT22;67161;0.000;0.000;2023-04-03T06:20:03;16.90;39.40
77969;DHT22;67161;0.000;0.000;2023-04-03T06:22:29;16.90;39.40
77969;DHT22;67161;0.000;0.000;2023-04-03T06:24:56;16.90;39.40
77969;DHT22;67161;0.000;0.000;2023-04-03T06:27:22;16.90;39.40
77969;DHT22;67161;0.000;0.000;2023-04-03T06:29:47;16.90;39.30
77969;DHT22;67161;0.000;0.000;2023-04-03T06:32:14;16.90;39.30
77969;DHT22;67161;0.000;0.000;2023-04-03T06:34:40;16.90;39.30
77969;DHT22;67161;0.000;0.000;2023-04-03T06:37:10;16.90;39.20
77969;DHT22;67161;0.000;0.000;2023-04-03T06:39:36;16.90;39.20
77969;DHT22;67161;0.000;0.000;2023-04-03T06:42:01;16.90;40.10
77969;DHT22;67161;0.000;0.000;2023-04-03T06:44:27;16.90;39.20
77969;DHT22;67161;0.000;0.000;2023-04-03T06:46:53;16.90;39.10
77969;DHT22;67161;0.000;0.000;2023-04-03T06:49:19;16.90;39.20
77969;DHT22;67161;0.000;0.000;2023-04-03T06:51:45;16.90;39.20
77969;DHT22;67161;0.000;0.000;2023-04-03T06:54:10;16.90;39.20
77969;DHT22;67161;0.000;0.000;2023-04-03T06:56:36;16.90;39.10
77969;DHT22;67161;0.000;0.000;2023-04-03T06:59:02;16.90;39.20
77969;DHT22;67161;0.000;0.000;2023-04-03T07:01:29;16.90;39.20
77969;DHT22;67161;0.000;0.000;2023-04-03T07:03:56;16.90;39.20
77969;DHT22;67161;0.000;0.000;2023-04-03T07:06:22;16.90;39.20
77969;DHT22;67161;0.000;0.000;2023-04-03T07:08:48;16.90;39.10
77969;DHT22;67161;0.000;0.000;2023-04-03T07:11:15;16.90;39.10
77969;DHT22;67161;0.000;0.000;2023-04-03T07:13:41;16.80;39.10
77969;DHT22;67161;0.000;0.000;2023-04-03T07:16:07;16.90;39.10
77969;DHT22;67161;0.000;0.000;2023-04-03T07:18:33;16.90;39.00
77969;DHT22;67161;0.000;0.000;2023-04-03T07:20:59;16.80;39.10
77969;DHT22;67161;0.000;0.000;2023-04-03T07:23:25;16.90;39.10
77969;DHT22;67161;0.000;0.000;2023-04-03T07:25:51;16.90;39.00
77969;DHT22;67161;0.000;0.000;2023-04-03T07:28:19;16.90;39.00
77969;DHT22;67161;0.000;0.000;2023-04-03T07:30:46;16.90;39.00
77969;DHT22;67161;0.000;0.000;2023-04-03T07:33:13;16.90;38.90
77969;DHT22;67161;0.000;0.000;2023-04-03T07:35:40;16.90;38.90
77969;DHT22;67161;0.000;0.000;2023-04-03T07:38:07;16.90;38.80
77969;DHT22;67161;0.000;0.000;2023-04-03T07:40:33;16.90;39.70
77969;DHT22;67161;0.000;0.000;2023-04-03T07:42:59;16.90;38.70
77969;DHT22;67161;0.000;0.000;2023-04-03T07:45:25;16.90;38.80
77969;DHT22;67161;0.000;0.000;2023-04-03T07:47:50;16.90;38.60
77969;DHT22;67161;0.000;0.000;2023-04-03T07:50:17;16.90;38.60
77969;DHT22;67161;0.000;0.000;2023-04-03T07:52:43;16.90;38.50
77969;DHT22;67161;0.000;0.000;2023-04-03T07:55:09;16.90;38.60
77969;DHT22;67161;0.000;0.000;2023-04-03T07:57:34;16.90;38.50
77969;DHT22;67161;0.000;0.000;2023-04-03T08:00:01;16.90;38.40
77969;DHT22;67161;0.000;0.000;2023-04-03T08:02:26;16.90;38.30
77969;DHT22;67161;0.000;0.000;2023-04-03T08:04:52;17.00;38.40
77969;DHT22;67161;0.000;0.000;2023-04-03T08:07:17;17.00;38.30
77969;DHT22;67161;0.000;0.000;2023-04-03T08:09:43;17.00;38.30
77969;DHT22;67161;0.000;0.000;2023-04-03T08:12:09;17.00;38.30
77969;DHT22;67161;0.000;0.000;2023-04-03T08:14:37;17.10;38.20
77969;DHT22;67161;0.000;0.000;2023-04-03T08:17:03;17.10;38.20
77969;DHT22;67161;0.000;0.000;2023-04-03T08:19:31;17.10;38.20
77969;DHT22;67161;0.000;0.000;2023-04-03T08:21:56;17.10;38.20
77969;DHT22;67161;0.000;0.000;2023-04-03T08:24:24;17.10;38.10
77969;DHT22;67161;0.000;0.000;2023-04-03T08:26:50;17.10;38.10
77969;DHT22;67161;0.000;0.000;2023-04-03T08:29:15;17.10;38.00
77969;DHT22;67161;0.000;0.000;2023-04-03T08:31:41;17.20;38.40
77969;DHT22;67161;0.000;0.000;2023-04-03T08:34:07;17.20;38.40
77969;DHT22;67161;0.000;0.000;2023-04-03T08:36:33;17.20;38.40
77969;DHT22;67161;0.000;0.000;2023-04-03T08:39:00;17.30;38.50
77969;DHT22;67161;0.000;0.000;2023-04-03T08:41:35;17.30;38.40
77969;DHT22;67161;0.000;0.000;2023-04-03T08:49:58;17.40;38.70
77969;DHT22;67161;0.000;0.000;2023-04-03T08:55:37;17.50;38.50
77969;DHT22;67161;0.000;0.000;2023-04-03T08:58:09;17.50;38.50
77969;DHT22;67161;0.000;0.000;2023-04-03T09:00:55;17.60;38.60
77969;DHT22;67161;0.000;0.000;2023-04-03T09:03:22;17.60;38.40
77969;DHT22;67161;0.000;0.000;2023-04-03T09:06:02;17.60;38.30
77969;DHT22;67161;0.000;0.000;2023-04-03T09:11:24;17.70;37.90
77969;DHT22;67161;0.000;0.000;2023-04-03T09:24:41;17.70;37.70
77969;DHT22;67161;0.000;0.000;2023-04-03T09:27:10;17.80;37.80
77969;DHT22;67161;0.000;0.000;2023-04-03T09:29:41;17.80;37.70
77969;DHT22;67161;0.000;0.000;2023-04-03T09:32:29;17.80;37.60
77969;DHT22;67161;0.000;0.000;2023-04-03T09:34:59;17.80;37.30
77969;DHT22;67161;0.000;0.000;2023-04-03T09:37:42;17.80;37.40
77969;DHT22;67161;0.000;0.000;2023-04-03T09:40:36;17.80;37.10
77969;DHT22;67161;0.000;0.000;2023-04-03T09:43:20;17.80;36.90
77969;DHT22;67161;0.000;0.000;2023-04-03T09:45:46;17.80;37.00
77969;DHT22;67161;0.000;0.000;2023-04-03T09:50:52;17.90;37.20
77969;DHT22;67161;0.000;0.000;2023-04-03T09:55:55;18.00;36.60
77969;DHT22;67161;0.000;0.000;2023-04-03T09:58:30;18.00;37.10
77969;DHT22;67161;0.000;0.000;2023-04-03T10:00:58;18.00;36.90
77969;DHT22;67161;0.000;0.000;2023-04-03T10:03:35;18.00;36.90
77969;DHT22;67161;0.000;0.000;2023-04-03T10:06:23;18.10;36.70
77969;DHT22;67161;0.000;0.000;2023-04-03T10:09:02;18.10;36.50
77969;DHT22;67161;0.000;0.000;2023-04-03T10:11:30;18.10;36.60
77969;DHT22;67161;0.000;0.000;2023-04-03T10:16:35;18.10;36.50
77969;DHT22;67161;0.000;0.000;2023-04-03T10:19:26;18.10;36.30
77969;DHT22;67161;0.000;0.000;2023-04-03T10:22:03;18.10;36.00
77969;DHT22;67161;0.000;0.000;2023-04-03T10:27:17;18.20;36.10
77969;DHT22;67161;0.000;0.000;2023-04-03T10:30:17;18.20;36.10
77969;DHT22;67161;0.000;0.000;2023-04-03T10:33:05;18.20;35.90
77969;DHT22;67161;0.000;0.000;2023-04-03T10:35:42;18.20;35.80
77969;DHT22;67161;0.000;0.000;2023-04-03T10:38:33;18.20;36.00
77969;DHT22;67161;0.000;0.000;2023-04-03T10:41:02;18.20;35.90
77969;DHT22;67161;0.000;0.000;2023-04-03T10:46:16;18.20;35.80
77969;DHT22;67161;0.000;0.000;2023-04-03T10:52:11;18.30;35.60
77969;DHT22;67161;0.000;0.000;2023-04-03T10:55:02;18.30;35.70
77969;DHT22;67161;0.000;0.000;2023-04-03T10:57:31;18.30;35.80
77969;DHT22;67161;0.000;0.000;2023-04-03T11:02:31;18.30;35.70
77969;DHT22;67161;0.000;0.000;2023-04-03T11:05:14;18.30;35.50
77969;DHT22;67161;0.000;0.000;2023-04-03T11:07:45;18.30;35.50
77969;DHT22;67161;0.000;0.000;2023-04-03T11:10:23;18.30;35.60
77969;DHT22;67161;0.000;0.000;2023-04-03T11:13:02;18.40;35.40
77969;DHT22;67161;0.000;0.000;2023-04-03T11:15:32;18.40;35.30
77969;DHT22;67161;0.000;0.000;2023-04-03T11:18:05;18.40;35.50
77969;DHT22;67161;0.000;0.000;2023-04-03T11:20:33;18.40;35.30
77969;DHT22;67161;0.000;0.000;2023-04-03T11:25:49;18.40;34.70
77969;DHT22;67161;0.000;0.000;2023-04-03T11:28:15;18.40;35.10
77969;DHT22;67161;0.000;0.000;2023-04-03T11:34:26;18.40;34.70
77969;DHT22;67161;0.000;0.000;2023-04-03T11:36:58;18.50;34.80
77969;DHT22;67161;0.000;0.000;2023-04-03T11:39:30;18.50;34.90
77969;DHT22;67161;0.000;0.000;2023-04-03T11:42:24;18.50;34.30
77969;DHT22;67161;0.000;0.000;2023-04-03T11:50:31;18.50;34.70
77969;DHT22;67161;0.000;0.000;2023-04-03T11:53:02;18.50;34.40
77969;DHT22;67161;0.000;0.000;2023-04-03T11:58:02;18.50;34.70
77969;DHT22;67161;0.000;0.000;2023-04-03T12:16:32;18.60;34.80
77969;DHT22;67161;0.000;0.000;2023-04-03T12:26:36;18.60;34.70
77969;DHT22;67161;0.000;0.000;2023-04-03T12:29:33;18.60;34.60
77969;DHT22;67161;0.000;0.000;2023-04-03T12:34:48;18.60;34.60
77969;DHT22;67161;0.000;0.000;2023-04-03T12:40:47;18.60;35.50
77969;DHT22;67161;0.000;0.000;2023-04-03T12:46:18;18.60;34.60
77969;DHT22;67161;0.000;0.000;2023-04-03T12:48:53;18.60;34.60
77969;DHT22;67161;0.000;0.000;2023-04-03T12:51:40;18.60;34.60
77969;DHT22;67161;0.000;0.000;2023-04-03T12:56:43;18.60;34.50
77969;DHT22;67161;0.000;0.000;2023-04-03T12:59:23;18.60;34.50
77969;DHT22;67161;0.000;0.000;2023-04-03T13:02:01;18.60;34.20
77969;DHT22;67161;0.000;0.000;2023-04-03T13:04:28;18.50;34.10
77969;DHT22;67161;0.000;0.000;2023-04-03T13:06:54;18.50;34.10
77969;DHT22;67161;0.000;0.000;2023-04-03T13:11:51;18.50;34.10
77969;DHT22;67161;0.000;0.000;2023-04-03T13:14:21;18.50;34.10
77969;DHT22;67161;0.000;0.000;2023-04-03T13:17:12;18.50;34.20
77969;DHT22;67161;0.000;0.000;2023-04-03T13:19:39;18.50;33.90
77969;DHT22;67161;0.000;0.000;2023-04-03T13:22:34;18.50;33.90
77969;DHT22;67161;0.000;0.000;2023-04-03T13:25:07;18.40;33.60
77969;DHT22;67161;0.000;0.000;2023-04-03T13:27:33;18.40;33.80
77969;DHT22;67161;0.000;0.000;2023-04-03T13:30:00;18.40;33.60
77969;DHT22;67161;0.000;0.000;2023-04-03T13:32:28;18.40;33.60
77969;DHT22;67161;0.000;0.000;2023-04-03T13:34:55;18.40;33.60
77969;DHT22;67161;0.000;0.000;2023-04-03T13:40:02;18.40;33.60
77969;DHT22;67161;0.000;0.000;2023-04-03T13:42:31;18.30;33.50
77969;DHT22;67161;0.000;0.000;2023-04-03T13:45:27;18.30;33.70
77969;DHT22;67161;0.000;0.000;2023-04-03T13:48:14;18.30;33.40
77969;DHT22;67161;0.000;0.000;2023-04-03T13:51:01;18.30;33.40
77969;DHT22;67161;0.000;0.000;2023-04-03T13:53:29;18.30;33.50
77969;DHT22;67161;0.000;0.000;2023-04-03T13:56:07;18.30;33.50
77969;DHT22;67161;0.000;0.000;2023-04-03T13:58:34;18.30;33.40
77969;DHT22;67161;0.000;0.000;2023-04-03T14:01:08;18.20;33.50
77969;DHT22;67161;0.000;0.000;2023-04-03T14:03:45;18.20;33.60
77969;DHT22;67161;0.000;0.000;2023-04-03T14:06:15;18.20;33.50
77969;DHT22;67161;0.000;0.000;2023-04-03T14:08:41;18.20;33.70
77969;DHT22;67161;0.000;0.000;2023-04-03T14:11:14;18.10;33.60
77969;DHT22;67161;0.000;0.000;2023-04-03T14:13:40;18.20;33.40
77969;DHT22;67161;0.000;0.000;2023-04-03T14:16:05;18.20;33.50
77969;DHT22;67161;0.000;0.000;2023-04-03T14:18:31;18.20;33.50
77969;DHT22;67161;0.000;0.000;2023-04-03T14:20:57;18.10;34.40
77969;DHT22;67161;0.000;0.000;2023-04-03T14:23:23;18.10;33.50
77969;DHT22;67161;0.000;0.000;2023-04-03T14:25:49;18.10;33.60
77969;DHT22;67161;0.000;0.000;2023-04-03T14:28:20;18.10;33.60
77969;DHT22;67161;0.000;0.000;2023-04-03T14:30:47;18.10;33.70
77969;DHT22;67161;0.000;0.000;2023-04-03T14:33:16;18.10;33.70
77969;DHT22;67161;0.000;0.000;2023-04-03T14:35:42;18.10;33.70
77969;DHT22;67161;0.000;0.000;2023-04-03T14:38:25;18.10;33.70
77969;DHT22;67161;0.000;0.000;2023-04-03T14:40:52;18.10;33.70
77969;DHT22;67161;0.000;0.000;2023-04-03T14:43:18;18.10;33.90
77969;DHT22;67161;0.000;0.000;2023-04-03T14:45:44;18.10;34.00
77969;DHT22;67161;0.000;0.000;2023-04-03T14:48:20;18.00;33.90
77969;DHT22;67161;0.000;0.000;2023-04-03T14:50:47;18.10;34.10
77969;DHT22;67161;0.000;0.000;2023-04-03T14:53:13;18.10;34.20
77969;DHT22;67161;0.000;0.000;2023-04-03T14:55:41;18.10;34.40
77969;DHT22;67161;0.000;0.000;2023-04-03T14:58:15;18.00;34.30
77969;DHT22;67161;0.000;0.000;2023-04-03T15:00:42;18.00;34.30
77969;DHT22;67161;0.000;0.000;2023-04-03T15:03:19;18.00;34.30
77969;DHT22;67161;0.000;0.000;2023-04-03T15:05:46;18.00;34.40
77969;DHT22;67161;0.000;0.000;2023-04-03T15:08:23;18.00;34.60
77969;DHT22;67161;0.000;0.000;2023-04-03T15:10:50;18.00;34.40
77969;DHT22;67161;0.000;0.000;2023-04-03T15:13:18;18.00;34.50
77969;DHT22;67161;0.000;0.000;2023-04-03T15:15:44;18.00;34.60
77969;DHT22;67161;0.000;0.000;2023-04-03T15:18:16;18.00;34.60
77969;DHT22;67161;0.000;0.000;2023-04-03T15:20:43;17.90;34.50
77969;DHT22;67161;0.000;0.000;2023-04-03T15:23:11;17.90;34.50
77969;DHT22;67161;0.000;0.000;2023-04-03T15:25:37;17.90;34.60
77969;DHT22;67161;0.000;0.000;2023-04-03T15:28:03;17.90;34.80
77969;DHT22;67161;0.000;0.000;2023-04-03T15:30:29;17.90;34.80
77969;DHT22;67161;0.000;0.000;2023-04-03T15:32:55;17.90;34.60
77969;DHT22;67161;0.000;0.000;2023-04-03T15:35:20;17.90;34.60
77969;DHT22;67161;0.000;0.000;2023-04-03T15:37:46;17.90;34.60
77969;DHT22;67161;0.000;0.000;2023-04-03T15:40:13;17.90;35.60
77969;DHT22;67161;0.000;0.000;2023-04-03T15:42:40;17.80;34.70
77969;DHT22;67161;0.000;0.000;2023-04-03T15:45:06;17.80;34.80
77969;DHT22;67161;0.000;0.000;2023-04-03T15:47:32;17.80;34.90
77969;DHT22;67161;0.000;0.000;2023-04-03T15:49:58;17.80;35.00
77969;DHT22;67161;0.000;0.000;2023-04-03T15:52:23;17.80;35.00
77969;DHT22;67161;0.000;0.000;2023-04-03T15:54:49;17.80;35.10
77969;DHT22;67161;0.000;0.000;2023-04-03T15:57:15;17.80;35.20
77969;DHT22;67161;0.000;0.000;2023-04-03T15:59:40;17.80;35.20
77969;DHT22;67161;0.000;0.000;2023-04-03T16:02:08;17.80;35.20
77969;DHT22;67161;0.000;0.000;2023-04-03T16:04:35;17.80;35.20
77969;DHT22;67161;0.000;0.000;2023-04-03T16:07:02;17.80;35.30
77969;DHT22;67161;0.000;0.000;2023-04-03T16:09:28;17.80;35.30
77969;DHT22;67161;0.000;0.000;2023-04-03T16:11:53;17.80;35.40
77969;DHT22;67161;0.000;0.000;2023-04-03T16:14:20;17.80;35.40
77969;DHT22;67161;0.000;0.000;2023-04-03T16:16:45;17.80;35.40
77969;DHT22;67161;0.000;0.000;2023-04-03T16:19:11;18.10;35.30
77969;DHT22;67161;0.000;0.000;2023-04-03T16:21:37;18.40;34.90
77969;DHT22;67161;0.000;0.000;2023-04-03T16:24:02;18.80;34.40
77969;DHT22;67161;0.000;0.000;2023-04-03T16:26:28;19.10;33.80
77969;DHT22;67161;0.000;0.000;2023-04-03T16:28:54;19.40;34.40
77969;DHT22;67161;0.000;0.000;2023-04-03T16:31:21;19.50;33.10
77969;DHT22;67161;0.000;0.000;2023-04-03T16:33:47;19.60;33.00
77969;DHT22;67161;0.000;0.000;2023-04-03T16:36:12;19.40;32.90
77969;DHT22;67161;0.000;0.000;2023-04-03T16:38:38;19.30;33.00
77969;DHT22;67161;0.000;0.000;2023-04-03T16:41:04;19.20;33.10
77969;DHT22;67161;0.000;0.000;2023-04-03T16:43:31;19.10;34.20
77969;DHT22;67161;0.000;0.000;2023-04-03T16:45:58;19.00;33.20
77969;DHT22;67161;0.000;0.000;2023-04-03T16:48:23;18.90;33.30
77969;DHT22;67161;0.000;0.000;2023-04-03T16:50:49;18.90;33.40
77969;DHT22;67161;0.000;0.000;2023-04-03T16:53:19;18.90;34.40
77969;DHT22;67161;0.000;0.000;2023-04-03T16:55:45;18.80;33.50
77969;DHT22;67161;0.000;0.000;2023-04-03T16:58:11;18.80;33.60
77969;DHT22;67161;0.000;0.000;2023-04-03T17:00:37;18.80;33.70
77969;DHT22;67161;0.000;0.000;2023-04-03T17:03:03;18.80;33.60
77969;DHT22;67161;0.000;0.000;2023-04-03T17:05:28;18.80;33.70
77969;DHT22;67161;0.000;0.000;2023-04-03T17:07:54;18.80;33.80
77969;DHT22;67161;0.000;0.000;2023-04-03T17:10:20;18.80;33.60
77969;DHT22;67161;0.000;0.000;2023-04-03T17:12:45;18.80;33.80
77969;DHT22;67161;0.000;0.000;2023-04-03T17:15:11;18.80;33.80
77969;DHT22;67161;0.000;0.000;2023-04-03T17:17:37;18.80;33.80
77969;DHT22;67161;0.000;0.000;2023-04-03T17:20:03;18.80;33.90
77969;DHT22;67161;0.000;0.000;2023-04-03T17:22:29;18.80;33.90
77969;DHT22;67161;0.000;0.000;2023-04-03T17:24:55;18.80;33.80
77969;DHT22;67161;0.000;0.000;2023-04-03T17:27:20;18.70;33.70
77969;DHT22;67161;0.000;0.000;2023-04-03T17:29:46;18.70;33.70
77969;DHT22;67161;0.000;0.000;2023-04-03T17:32:12;18.70;33.90
77969;DHT22;67161;0.000;0.000;2023-04-03T17:34:37;18.60;33.90
77969;DHT22;67161;0.000;0.000;2023-04-03T17:37:04;18.60;34.10